createdAt,value
2019-03-08T00:02:29.573Z,1.05
2019-03-08T00:04:59.696Z,1.32
2019-03-08T00:07:29.546Z,1.05
2019-03-08T00:09:59.249Z,1.35
2019-03-08T00:12:29.225Z,1.20
2019-03-08T00:14:59.326Z,0.95
2019-03-08T00:17:31.675Z,0.80
2019-03-08T00:20:05.173Z,1.30
2019-03-08T00:22:38.517Z,1.27
2019-03-08T00:25:15.013Z,1.20
2019-03-08T00:27:45.011Z,1.30
2019-03-08T00:30:16.441Z,0.80
2019-03-08T00:32:46.406Z,0.90
2019-03-08T00:35:17.094Z,1.07
2019-03-08T00:37:47.785Z,0.75
2019-03-08T00:40:17.796Z,0.93
2019-03-08T00:42:48.465Z,0.80
2019-03-08T00:45:19.610Z,1.02
2019-03-08T00:47:49.313Z,0.80
2019-03-08T00:50:19.030Z,1.33
2019-03-08T00:52:48.724Z,1.25
2019-03-08T00:55:18.419Z,0.70
2019-03-08T00:57:49.172Z,0.70
2019-03-08T01:00:21.735Z,0.80
2019-03-08T01:02:53.807Z,0.77
2019-03-08T01:05:24.980Z,0.90
2019-03-08T01:07:54.824Z,0.90
2019-03-08T01:10:30.557Z,0.87
2019-03-08T01:13:00.257Z,1.00
2019-03-08T01:15:31.685Z,1.10
2019-03-08T01:18:02.719Z,0.80
2019-03-08T01:20:33.518Z,0.70
2019-03-08T01:23:05.762Z,0.90
2019-03-08T01:25:35.655Z,0.97
2019-03-08T01:28:10.327Z,0.93
2019-03-08T01:30:42.658Z,0.77
2019-03-08T01:33:13.626Z,0.70
2019-03-08T01:35:43.888Z,0.80
2019-03-08T01:38:23.054Z,0.90
2019-03-08T01:40:55.078Z,0.90
2019-03-08T01:43:24.905Z,0.90
2019-03-08T01:45:54.701Z,0.70
2019-03-08T01:48:25.409Z,0.60
2019-03-08T01:50:55.391Z,0.85
2019-03-08T01:53:26.145Z,0.80
2019-03-08T01:55:55.865Z,0.93
2019-03-08T01:58:26.269Z,0.70
2019-03-08T02:01:01.117Z,0.98
2019-03-08T02:03:32.817Z,0.70
2019-03-08T02:06:03.736Z,1.60
2019-03-08T02:08:39.468Z,0.90
2019-03-08T02:11:09.154Z,0.67
2019-03-08T02:13:45.041Z,0.90
2019-03-08T02:16:19.508Z,0.87
2019-03-08T02:18:56.159Z,0.77
2019-03-08T02:21:28.242Z,0.82
2019-03-08T02:23:58.997Z,0.82
2019-03-08T02:26:29.781Z,0.80
2019-03-08T02:28:59.469Z,0.90
2019-03-08T02:31:34.218Z,0.77
2019-03-08T02:34:03.982Z,0.70
2019-03-08T02:36:33.943Z,0.75
2019-03-08T02:39:05.442Z,0.90
2019-03-08T02:41:35.181Z,0.97
2019-03-08T02:44:05.809Z,0.80
2019-03-08T02:46:36.771Z,1.10
2019-03-08T02:49:11.937Z,1.00
2019-03-08T02:51:44.428Z,0.90
2019-03-08T02:54:14.374Z,0.70
2019-03-08T02:56:44.397Z,0.80
2019-03-08T02:59:14.090Z,0.83
2019-03-08T03:01:43.789Z,0.80
2019-03-08T03:04:13.525Z,1.10
2019-03-08T03:06:44.465Z,0.80
2019-03-08T03:09:14.738Z,0.70
2019-03-08T03:11:44.857Z,0.75
2019-03-08T03:14:18.023Z,0.60
2019-03-08T03:16:48.172Z,0.80
2019-03-08T03:19:18.293Z,0.98
2019-03-08T03:21:48.476Z,0.82
2019-03-08T03:24:19.541Z,1.05
2019-03-08T03:26:49.661Z,1.02
2019-03-08T03:29:19.757Z,0.95
2019-03-08T03:31:49.886Z,0.70
2019-03-08T03:34:21.949Z,0.88
2019-03-08T03:36:54.834Z,0.90
2019-03-08T03:39:24.589Z,1.05
2019-03-08T03:41:55.553Z,0.80
2019-03-08T03:44:25.653Z,0.78
2019-03-08T03:46:55.773Z,0.90
2019-03-08T03:49:25.777Z,1.00
2019-03-08T03:51:55.861Z,1.02
2019-03-08T03:54:25.981Z,0.90
2019-03-08T03:56:55.831Z,0.65
2019-03-08T03:59:25.792Z,0.60
2019-03-08T04:01:55.901Z,1.27
2019-03-08T04:04:26.896Z,0.70
2019-03-08T04:06:59.111Z,0.82
2019-03-08T04:09:33.241Z,0.60
2019-03-08T04:12:05.103Z,0.90
2019-03-08T04:14:35.262Z,1.02
2019-03-08T04:17:05.355Z,0.80
2019-03-08T04:19:36.093Z,1.10
2019-03-08T04:22:06.069Z,0.90
2019-03-08T04:24:37.913Z,1.00
2019-03-08T04:27:08.858Z,0.72
2019-03-08T04:29:38.677Z,0.70
2019-03-08T04:32:10.637Z,0.70
2019-03-08T04:34:40.731Z,0.60
2019-03-08T04:37:10.589Z,0.62
2019-03-08T04:39:40.281Z,0.80
2019-03-08T04:42:09.981Z,0.80
2019-03-08T04:44:40.955Z,0.87
2019-03-08T04:47:23.909Z,0.80
2019-03-08T04:49:53.749Z,0.80
2019-03-08T04:52:27.757Z,1.30
2019-03-08T04:54:58.554Z,0.67
2019-03-08T04:57:28.521Z,0.60
2019-03-08T04:59:58.633Z,0.60
2019-03-08T05:02:29.706Z,0.90
2019-03-08T05:04:59.797Z,0.87
2019-03-08T05:07:29.633Z,0.93
2019-03-08T05:10:00.543Z,0.50
2019-03-08T05:12:31.091Z,0.50
2019-03-08T05:15:01.443Z,0.50
2019-03-08T05:17:32.529Z,0.50
2019-03-08T05:20:10.238Z,0.50
2019-03-08T05:22:40.918Z,0.70
2019-03-08T05:25:16.775Z,0.60
2019-03-08T05:27:46.595Z,0.80
2019-03-08T05:30:17.957Z,0.50
2019-03-08T05:32:49.017Z,0.70
2019-03-08T05:35:19.375Z,0.60
2019-03-08T05:37:49.889Z,0.50
2019-03-08T05:40:20.945Z,0.60
2019-03-08T05:42:50.805Z,0.50
2019-03-08T05:45:21.765Z,2.00
2019-03-08T05:47:51.593Z,0.90
2019-03-08T05:50:22.555Z,2.83
2019-03-08T05:52:52.620Z,5.00
2019-03-08T05:55:29.361Z,2.58
2019-03-08T05:57:59.997Z,1.07
2019-03-08T06:00:34.694Z,1.77
2019-03-08T06:03:07.717Z,1.00
2019-03-08T06:05:39.811Z,2.20
2019-03-08T06:08:09.912Z,2.50
2019-03-08T06:10:41.249Z,1.47
2019-03-08T06:13:16.674Z,1.70
2019-03-08T06:15:46.651Z,1.33
2019-03-08T06:18:16.719Z,1.00
2019-03-08T06:20:47.865Z,0.93
2019-03-08T06:23:23.251Z,0.63
2019-03-08T06:25:53.107Z,0.57
2019-03-08T06:28:22.809Z,0.60
2019-03-08T06:30:52.766Z,1.50
2019-03-08T06:33:27.087Z,1.10
2019-03-08T06:35:59.144Z,0.97
2019-03-08T06:38:31.231Z,1.03
2019-03-08T06:41:01.327Z,1.20
2019-03-08T06:43:32.121Z,1.10
2019-03-08T06:46:02.115Z,0.80
2019-03-08T06:48:31.958Z,0.50
2019-03-08T06:51:01.928Z,1.30
2019-03-08T06:53:32.201Z,1.20
2019-03-08T06:56:03.059Z,0.93
2019-03-08T06:58:44.701Z,0.70
2019-03-08T07:01:15.759Z,0.70
2019-03-08T07:03:51.318Z,0.63
2019-03-08T07:06:21.259Z,1.60
2019-03-08T07:08:52.317Z,0.60
2019-03-08T07:11:22.438Z,0.80
2019-03-08T07:13:53.993Z,0.80
2019-03-08T07:16:24.093Z,0.70
2019-03-08T07:18:55.136Z,0.67
2019-03-08T07:21:28.614Z,0.80
2019-03-08T07:24:21.035Z,0.63
2019-03-08T07:26:58.989Z,1.10
2019-03-08T07:29:41.142Z,0.73
2019-03-08T07:32:33.483Z,0.73
2019-03-08T07:35:08.264Z,1.07
2019-03-08T07:37:40.299Z,0.70
2019-03-08T07:40:15.805Z,1.10
2019-03-08T07:43:04.477Z,0.90
2019-03-08T07:45:51.050Z,0.60
2019-03-08T07:48:29.127Z,0.63
2019-03-08T07:51:03.048Z,0.70
2019-03-08T07:53:40.345Z,0.87
2019-03-08T07:56:17.841Z,0.90
2019-03-08T07:59:07.656Z,0.67
2019-03-08T08:01:51.075Z,0.80
2019-03-08T08:04:30.599Z,0.80
2019-03-08T08:07:02.892Z,1.20
2019-03-08T08:09:43.079Z,0.80
2019-03-08T08:12:14.805Z,1.27
2019-03-08T08:15:06.677Z,0.70
2019-03-08T08:17:43.933Z,1.20
2019-03-08T08:20:16.632Z,0.63
2019-03-08T08:22:49.153Z,0.93
2019-03-08T08:25:36.564Z,1.37
2019-03-08T08:28:06.503Z,1.17
2019-03-08T08:30:49.725Z,0.73
2019-03-08T08:33:40.389Z,1.00
2019-03-08T08:36:14.815Z,0.77
2019-03-08T08:38:54.190Z,0.87
2019-03-08T08:41:44.042Z,2.53
2019-03-08T08:44:25.337Z,0.83
2019-03-08T08:50:04.273Z,0.80
2019-03-08T08:52:41.378Z,1.30
2019-03-08T08:55:25.339Z,1.13
2019-03-08T08:58:03.121Z,0.90
2019-03-08T09:00:35.103Z,1.33
2019-03-08T09:03:22.706Z,1.33
2019-03-08T09:05:59.613Z,0.80
2019-03-08T09:08:30.962Z,0.73
2019-03-08T09:11:04.729Z,0.83
2019-03-08T09:13:46.277Z,0.60
2019-03-08T09:16:20.517Z,0.70
2019-03-08T09:18:55.849Z,1.00
2019-03-08T09:21:28.193Z,0.70
2019-03-08T09:24:00.757Z,0.60
2019-03-08T09:26:37.916Z,1.10
2019-03-08T09:29:09.533Z,0.77
2019-03-08T09:31:58.465Z,1.37
2019-03-08T09:34:48.271Z,0.83
2019-03-08T09:37:35.231Z,2.03
2019-03-08T09:40:20.565Z,0.80
2019-03-08T09:43:11.170Z,0.90
2019-03-08T09:45:42.904Z,0.90
2019-03-08T09:48:31.042Z,0.50
2019-03-08T09:51:20.727Z,0.80
2019-03-08T09:54:08.921Z,0.80
2019-03-08T09:56:55.395Z,0.90
2019-03-08T09:59:29.886Z,1.00
2019-03-08T10:02:11.327Z,1.00
2019-03-08T10:05:06.862Z,1.03
2019-03-08T10:07:38.329Z,1.00
2019-03-08T10:10:21.239Z,1.37
2019-03-08T10:12:55.651Z,0.90
2019-03-08T10:15:45.785Z,0.70
2019-03-08T10:18:17.681Z,0.80
2019-03-08T10:20:52.193Z,0.80
2019-03-08T10:23:41.767Z,0.80
2019-03-08T10:26:14.145Z,1.10
2019-03-08T10:29:05.195Z,0.90
2019-03-08T10:31:39.695Z,0.70
2019-03-08T10:34:34.707Z,1.63
2019-03-08T10:37:07.393Z,0.73
2019-03-08T10:39:54.997Z,1.57
2019-03-08T10:42:26.603Z,0.63
2019-03-08T10:45:00.694Z,1.40
2019-03-08T10:47:41.863Z,0.97
2019-03-08T10:50:23.113Z,0.90
2019-03-08T10:53:11.846Z,0.90
2019-03-08T10:55:45.998Z,0.90
2019-03-08T10:58:26.728Z,1.30
2019-03-08T11:01:01.157Z,0.90
2019-03-08T11:03:35.411Z,1.17
2019-03-08T11:06:15.226Z,0.70
2019-03-08T11:08:46.951Z,0.87
2019-03-08T11:11:35.469Z,0.70
2019-03-08T11:14:22.250Z,0.93
2019-03-08T11:16:55.903Z,0.83
2019-03-08T11:19:30.347Z,0.77
2019-03-08T11:22:14.077Z,0.60
2019-03-08T11:24:57.788Z,0.80
2019-03-08T11:27:51.337Z,1.10
2019-03-08T11:30:41.042Z,0.90
2019-03-08T11:33:28.890Z,1.00
2019-03-08T11:36:02.512Z,0.60
2019-03-08T11:38:41.533Z,0.70
2019-03-08T11:41:21.927Z,0.83
2019-03-08T11:43:56.407Z,0.70
2019-03-08T11:46:43.182Z,0.83
2019-03-08T11:49:23.819Z,1.07
2019-03-08T11:52:04.319Z,1.00
2019-03-08T11:54:51.162Z,1.20
2019-03-08T11:57:22.641Z,0.87
2019-03-08T12:00:04.329Z,0.90
2019-03-08T12:02:52.954Z,0.70
2019-03-08T12:05:33.214Z,0.63
2019-03-08T12:08:07.519Z,1.00
2019-03-08T12:10:46.882Z,0.67
2019-03-08T12:13:22.085Z,1.50
2019-03-08T12:15:53.569Z,0.70
2019-03-08T12:18:34.320Z,0.80
2019-03-08T12:21:23.958Z,0.80
2019-03-08T12:24:11.697Z,1.23
2019-03-08T12:26:43.140Z,0.83
2019-03-08T12:29:21.093Z,0.90
2019-03-08T12:32:04.670Z,0.70
2019-03-08T12:34:54.846Z,0.80
2019-03-08T12:37:32.174Z,0.90
2019-03-08T12:40:04.530Z,0.80
2019-03-08T12:42:53.274Z,0.90
2019-03-08T12:45:27.557Z,1.10
2019-03-08T12:48:05.061Z,0.80
2019-03-08T12:50:37.513Z,0.90
2019-03-08T12:53:09.201Z,1.20
2019-03-08T12:55:44.855Z,1.17
2019-03-08T12:58:22.951Z,0.80
2019-03-08T13:01:14.009Z,0.53
2019-03-08T13:03:49.387Z,1.03
2019-03-08T13:06:28.871Z,0.83
2019-03-08T13:09:12.434Z,0.80
2019-03-08T13:11:42.391Z,0.90
2019-03-08T13:14:14.905Z,0.80
2019-03-08T13:16:44.609Z,0.70
2019-03-08T13:19:20.082Z,0.77
2019-03-08T13:21:50.047Z,0.90
2019-03-08T13:24:19.930Z,0.60
2019-03-08T13:26:49.654Z,0.73
2019-03-08T13:29:26.285Z,0.70
2019-03-08T13:31:56.034Z,1.00
2019-03-08T13:34:25.738Z,0.70
2019-03-08T13:36:55.686Z,0.73
2019-03-08T13:39:25.794Z,0.70
2019-03-08T13:41:55.992Z,0.60
2019-03-08T13:44:32.693Z,0.70
2019-03-08T13:47:02.936Z,0.87
2019-03-08T13:49:33.257Z,0.60
2019-03-08T13:52:03.090Z,0.90
2019-03-08T13:54:32.794Z,0.50
2019-03-08T13:57:04.485Z,0.70
2019-03-08T13:59:34.422Z,0.77
2019-03-08T14:02:04.589Z,0.87
2019-03-08T14:04:34.422Z,1.30
2019-03-08T14:07:04.390Z,0.80
2019-03-08T14:09:34.238Z,0.80
2019-03-08T14:12:04.203Z,0.60
2019-03-08T14:14:34.296Z,0.67
2019-03-08T14:17:05.336Z,0.90
2019-03-08T14:19:35.153Z,0.80
2019-03-08T14:22:06.118Z,1.30
2019-03-08T14:24:37.827Z,0.90
2019-03-08T14:27:10.827Z,0.80
2019-03-08T14:29:41.039Z,1.70
2019-03-08T14:32:11.754Z,1.43
2019-03-08T14:34:43.668Z,0.90
2019-03-08T14:37:19.921Z,1.00
2019-03-08T14:39:48.658Z,2.40
2019-03-08T14:42:23.051Z,0.87
2019-03-08T14:44:59.289Z,1.20
2019-03-08T14:47:33.329Z,1.50
2019-03-08T14:50:02.687Z,1.30
2019-03-08T14:52:34.531Z,1.10
2019-03-08T14:55:08.473Z,0.87
2019-03-08T14:57:41.103Z,1.00
2019-03-08T15:00:16.866Z,1.90
2019-03-08T15:02:55.374Z,1.53
2019-03-08T15:05:26.368Z,0.70
2019-03-08T15:07:58.402Z,0.60
2019-03-08T15:10:28.563Z,0.80
2019-03-08T15:13:08.430Z,0.70
2019-03-08T15:15:38.454Z,1.00
2019-03-08T15:18:10.650Z,1.35
2019-03-08T15:20:42.432Z,1.17
2019-03-08T15:23:17.021Z,0.93
2019-03-08T15:25:45.335Z,0.60
2019-03-08T15:28:16.287Z,1.10
2019-03-08T15:30:51.527Z,2.10
2019-03-08T15:33:30.626Z,1.30
2019-03-08T15:36:01.665Z,2.00
2019-03-08T15:38:31.752Z,1.20
2019-03-08T15:41:01.670Z,0.60
2019-03-08T15:43:31.364Z,0.70
2019-03-08T15:46:01.934Z,0.60
2019-03-08T15:48:35.035Z,0.70
2019-03-08T15:51:05.231Z,1.00
2019-03-08T15:53:35.046Z,0.70
2019-03-08T15:56:24.766Z,0.70
2019-03-08T15:58:55.521Z,1.20
2019-03-08T16:01:25.768Z,0.50
2019-03-08T16:03:57.759Z,0.93
2019-03-08T16:06:27.866Z,0.90
2019-03-08T16:08:57.726Z,1.00
2019-03-08T16:11:27.691Z,1.47
2019-03-08T16:14:08.219Z,1.37
2019-03-08T16:16:32.546Z,1.50
2019-03-08T16:19:02.664Z,1.53
2019-03-08T16:21:32.804Z,1.20
2019-03-08T16:24:05.308Z,1.03
2019-03-08T16:26:35.177Z,1.40
2019-03-08T16:29:10.598Z,1.73
2019-03-08T16:32:01.296Z,1.37
2019-03-08T16:34:32.810Z,1.83
2019-03-08T16:37:10.498Z,1.93
2019-03-08T16:39:51.370Z,1.73
2019-03-08T16:42:35.441Z,1.40
2019-03-08T16:45:15.673Z,3.42
2019-03-08T16:48:03.026Z,1.80
2019-03-08T16:50:40.119Z,3.20
2019-03-08T16:53:11.715Z,2.37
2019-03-08T16:56:00.335Z,3.90
2019-03-08T16:58:34.852Z,2.53
2019-03-08T17:01:13.067Z,2.40
2019-03-08T17:03:47.402Z,1.62
2019-03-08T17:06:43.905Z,2.00
2019-03-08T17:09:33.793Z,2.07
2019-03-08T17:12:22.870Z,2.02
2019-03-08T17:14:54.200Z,2.40
2019-03-08T17:17:32.611Z,2.50
2019-03-08T17:20:06.410Z,2.85
2019-03-08T17:22:53.903Z,2.60
2019-03-08T17:25:25.530Z,1.62
2019-03-08T17:28:15.186Z,1.85
2019-03-08T17:30:47.822Z,1.27
2019-03-08T17:33:24.813Z,1.72
2019-03-08T17:35:56.447Z,2.40
2019-03-08T17:38:34.062Z,1.55
2019-03-08T17:41:08.409Z,2.30
2019-03-08T17:43:39.742Z,2.00
2019-03-08T17:46:27.358Z,2.65
2019-03-08T17:52:05.244Z,3.47
2019-03-08T17:54:42.818Z,2.62
2019-03-08T17:57:17.547Z,2.70
2019-03-08T17:59:52.978Z,5.05
2019-03-08T18:02:28.206Z,2.55
2019-03-08T18:05:03.531Z,2.90
2019-03-08T18:07:35.030Z,3.02
2019-03-08T18:10:09.293Z,2.72
2019-03-08T18:12:44.475Z,3.30
2019-03-08T18:15:15.945Z,2.00
2019-03-08T18:17:47.558Z,2.25
2019-03-08T18:20:19.302Z,2.33
2019-03-08T18:23:05.447Z,3.45
2019-03-08T18:25:54.847Z,3.55
2019-03-08T18:28:39.215Z,10.58
2019-03-08T18:31:10.553Z,3.93
2019-03-08T18:33:44.594Z,3.15
2019-03-08T18:36:17.336Z,3.20
2019-03-08T18:39:01.078Z,2.60
2019-03-08T18:41:44.406Z,3.60
2019-03-08T18:44:21.600Z,3.03
2019-03-08T18:47:08.622Z,2.00
2019-03-08T18:49:58.691Z,2.75
2019-03-08T18:52:32.462Z,2.25
2019-03-08T18:55:06.890Z,1.10
2019-03-08T18:57:40.287Z,2.00
2019-03-08T19:00:30.390Z,1.70
2019-03-08T19:03:10.936Z,2.10
2019-03-08T19:05:54.426Z,1.85
2019-03-08T19:08:25.903Z,1.65
2019-03-08T19:11:13.502Z,1.65
2019-03-08T19:14:09.865Z,5.25
2019-03-08T19:16:52.359Z,4.75
2019-03-08T19:19:24.188Z,3.40
2019-03-08T19:22:04.827Z,1.82
2019-03-08T19:24:37.270Z,2.35
2019-03-08T19:27:18.799Z,2.12
2019-03-08T19:30:06.533Z,2.22
2019-03-08T19:32:57.659Z,3.30
2019-03-08T19:35:48.310Z,3.50
2019-03-08T19:38:27.702Z,3.17
2019-03-08T19:41:16.891Z,4.80
2019-03-08T19:43:48.463Z,3.85
2019-03-08T19:46:20.183Z,2.65
2019-03-08T19:49:06.670Z,3.10
2019-03-08T19:51:59.326Z,4.10
2019-03-08T19:54:46.646Z,4.60
2019-03-08T19:57:18.026Z,4.17
2019-03-08T20:00:05.670Z,5.42
2019-03-08T20:02:41.933Z,5.80
2019-03-08T20:05:13.338Z,3.35
2019-03-08T20:08:01.008Z,2.80
2019-03-08T20:10:38.519Z,2.65
2019-03-08T20:13:09.988Z,3.30
2019-03-08T20:15:43.032Z,2.85
2019-03-08T20:18:14.726Z,2.42
2019-03-08T20:21:01.602Z,3.45
2019-03-08T20:23:38.930Z,3.08
2019-03-08T20:26:11.362Z,2.85
2019-03-08T20:28:51.850Z,3.47
2019-03-08T20:31:23.518Z,1.90
2019-03-08T20:33:56.068Z,2.52
2019-03-08T20:36:30.612Z,3.47
2019-03-08T20:39:09.414Z,2.50
2019-03-08T20:41:55.733Z,3.05
2019-03-08T20:44:42.646Z,2.42
2019-03-08T20:47:15.162Z,2.80
2019-03-08T20:49:47.970Z,2.60
2019-03-08T20:52:18.095Z,2.67
2019-03-08T20:54:48.050Z,2.87
2019-03-08T20:57:23.896Z,2.92
2019-03-08T20:59:53.886Z,2.80
2019-03-08T21:02:24.066Z,3.35
2019-03-08T21:04:53.922Z,3.37
2019-03-08T21:07:24.802Z,2.22
2019-03-08T21:09:57.574Z,3.92
2019-03-08T21:12:27.577Z,2.83
2019-03-08T21:14:57.422Z,2.85
2019-03-08T21:17:30.822Z,3.10
2019-03-08T21:20:00.922Z,3.30
2019-03-08T21:22:31.659Z,3.17
2019-03-08T21:25:06.814Z,3.00
2019-03-08T21:27:36.907Z,2.80
2019-03-08T21:30:12.882Z,2.90
2019-03-08T21:32:45.565Z,2.67
2019-03-08T21:35:25.828Z,2.83
2019-03-08T21:38:02.632Z,2.60
2019-03-08T21:40:35.705Z,2.85
2019-03-08T21:43:08.610Z,2.58
2019-03-08T21:45:38.712Z,2.70
2019-03-08T21:48:11.897Z,2.83
2019-03-08T21:50:41.852Z,2.60
2019-03-08T21:53:11.621Z,2.65
2019-03-08T21:55:41.345Z,3.10
2019-03-08T21:58:16.790Z,2.80
2019-03-08T22:00:52.782Z,2.50
2019-03-08T22:03:37.836Z,3.37
2019-03-08T22:06:01.313Z,2.80
2019-03-08T22:08:31.172Z,2.70
2019-03-08T22:11:05.334Z,2.72
2019-03-08T22:13:37.014Z,2.75
2019-03-08T22:16:07.625Z,3.40
2019-03-08T22:18:38.537Z,2.50
2019-03-08T22:21:08.245Z,3.17
2019-03-08T22:23:38.251Z,2.80
2019-03-08T22:26:08.397Z,2.55
2019-03-08T22:28:39.406Z,2.12
2019-03-08T22:31:09.273Z,2.90
2019-03-08T22:33:40.231Z,3.20
2019-03-08T22:36:12.294Z,2.02
2019-03-08T22:38:43.133Z,2.50
2019-03-08T22:41:13.123Z,3.72
2019-03-08T22:43:43.855Z,2.65
2019-03-08T22:46:16.966Z,2.90
2019-03-08T22:48:47.213Z,2.52
2019-03-08T22:51:17.319Z,2.58
2019-03-08T22:53:47.714Z,2.15
2019-03-08T22:56:17.822Z,3.08
2019-03-08T22:59:10.713Z,2.70
2019-03-08T23:01:44.580Z,2.98
2019-03-08T23:04:14.550Z,2.35
2019-03-08T23:06:44.802Z,2.65
2019-03-08T23:09:15.456Z,2.83
2019-03-08T23:11:45.698Z,3.10
2019-03-08T23:14:29.614Z,3.27
2019-03-08T23:16:59.592Z,3.22
2019-03-08T23:19:29.686Z,3.58
2019-03-08T23:21:59.794Z,2.87
2019-03-08T23:24:29.948Z,2.55
2019-03-08T23:27:01.418Z,3.60
2019-03-08T23:29:32.760Z,2.80
2019-03-08T23:32:07.022Z,3.30
2019-03-08T23:34:42.757Z,3.17
2019-03-08T23:37:12.703Z,3.30
2019-03-08T23:39:42.833Z,3.00
2019-03-08T23:42:12.936Z,3.62
2019-03-08T23:44:49.670Z,3.55
2019-03-08T23:47:19.376Z,4.40
2019-03-08T23:49:49.129Z,4.20
2019-03-08T23:52:19.118Z,3.72
2019-03-08T23:54:51.098Z,4.20
2019-03-08T23:57:22.906Z,3.02
2019-03-08T23:59:52.868Z,3.05
